PWSweather.com
Personal Weather Stations
Station Observations
AF1HS
North Haven, CT 06473

North Haven, CT 06473

Lat: 41.3733, Lon: -72.8413

Elevation: 85.3

Station Type: Oregon Scientific WMR968

http://www.af1hs.com/wx/index.php

Latest ConditionsUpdated 7:00:35 PM EST Tuesday, Jan 23, 2018
Currently Today's Max Today's Min Today's Average
Temperature 45.5°F7.5°C 54.6°F12.6°C 34.0°F1.1°C 42.5°F5.8°C
Dew Point 45.5°F7.5°C 54.6°F12.6°C 34.0°F1.1°C 42.5°F5.8°C
Winds 0.9 mph SW1.4 kmh SW 9.2 mph S14.8 kmh S - 3.3 mph 5.3 kmh
Wind Gusts 4.0 mph6.4 kmh 19.7 mph31.7 kmh - -
Humidity 100% 100% 100% 100%
Pressure 29.53 in1000.0 mb 30.03 in1016.9 mb 29.44 in997.0 mb -
Precipitation - 0.67 in17.0 mm - -
Hour Temp Dew Point Humidity Winds Wind Gusts Pressure Precip Precip Rate Daily Precip Total
07:00 PM 45.5°F7.5°C 45.5°F7.5°C 100% 0.9 mph SW1.4 kmh SW 4.0 mph6.4 kmh 29.53 in1000.0 mb - 0.00 in0.0 mm 0.67 in17.0 mm
06:50 PM 45.9°F7.7°C 45.9°F7.7°C 100% Calm Calm -- 29.54 in1000.3 mb - 0.00 in0.0 mm 0.67 in17.0 mm
06:40 PM 46.0°F7.8°C 46.0°F7.8°C 100% 2.3 mph W3.7 kmh W 3.6 mph5.8 kmh 29.56 in1001.0 mb - 0.00 in0.0 mm 0.67 in17.0 mm
06:30 PM 46.6°F8.1°C 46.6°F8.1°C 100% 5.1 mph WNW8.2 kmh WNW 8.0 mph12.9 kmh 29.53 in1000.0 mb - 0.00 in0.0 mm 0.67 in17.0 mm
06:20 PM 47.4°F8.6°C 47.4°F8.6°C 100% 3.4 mph W5.5 kmh W 10.1 mph16.3 kmh 29.53 in1000.0 mb - 0.00 in0.0 mm 0.67 in17.0 mm
06:10 PM 47.7°F8.7°C 47.7°F8.7°C 100% 6.3 mph W10.1 kmh W 11.4 mph18.3 kmh 29.53 in1000.0 mb - 0.00 in0.0 mm 0.67 in17.0 mm
06:00 PM 47.8°F8.8°C 47.8°F8.8°C 100% 6.9 mph W11.1 kmh W 10.1 mph16.3 kmh 29.53 in1000.0 mb - 0.00 in0.0 mm 0.67 in17.0 mm
05:50 PM 48.1°F8.9°C 48.1°F8.9°C 100% 0.5 mph S0.8 kmh S -- 29.51 in999.3 mb - 0.00 in0.0 mm 0.67 in17.0 mm
05:40 PM 48.2°F9.0°C 48.2°F9.0°C 100% Calm Calm -- 29.50 in999.0 mb - 0.00 in0.0 mm 0.67 in17.0 mm
05:30 PM 48.7°F9.3°C 48.7°F9.3°C 100% Calm Calm 2.7 mph4.3 kmh 29.50 in999.0 mb - 0.00 in0.0 mm 0.67 in17.0 mm
05:20 PM 49.3°F9.6°C 49.3°F9.6°C 100% Calm Calm 3.6 mph5.8 kmh 29.50 in999.0 mb - 0.00 in0.0 mm 0.67 in17.0 mm
05:10 PM 49.8°F9.9°C 49.8°F9.9°C 100% Calm Calm -- 29.47 in998.0 mb - 0.00 in0.0 mm 0.67 in17.0 mm
05:00 PM 50.0°F10.0°C 50.0°F10.0°C 100% 0.4 mph S0.6 kmh S 2.2 mph3.5 kmh 29.47 in998.0 mb - 0.00 in0.0 mm 0.67 in17.0 mm
04:50 PM 50.4°F10.2°C 50.4°F10.2°C 100% 1.4 mph S2.3 kmh S 4.0 mph6.4 kmh 29.47 in998.0 mb - 0.00 in0.0 mm 0.67 in17.0 mm
04:40 PM 50.4°F10.2°C 50.4°F10.2°C 100% 2.0 mph S3.2 kmh S 4.0 mph6.4 kmh 29.47 in998.0 mb - 0.00 in0.0 mm 0.67 in17.0 mm
04:30 PM 50.4°F10.2°C 50.4°F10.2°C 100% 0.5 mph SSW0.8 kmh SSW 3.1 mph5.0 kmh 29.44 in997.0 mb - 0.00 in0.0 mm 0.67 in17.0 mm
04:10 PM 50.9°F10.5°C 50.9°F10.5°C 100% 1.3 mph SSE2.1 kmh SSE 3.1 mph5.0 kmh 29.44 in997.0 mb - 0.00 in0.0 mm 0.67 in17.0 mm
04:00 PM 51.3°F10.7°C 51.3°F10.7°C 100% Calm Calm -- 29.44 in997.0 mb - 0.00 in0.0 mm 0.67 in17.0 mm
03:50 PM 51.6°F10.9°C 51.6°F10.9°C 100% Calm Calm -- 29.44 in997.0 mb - 0.00 in0.0 mm 0.67 in17.0 mm
03:40 PM 52.0°F11.1°C 52.0°F11.1°C 100% Calm Calm -- 29.44 in997.0 mb - 0.00 in0.0 mm 0.67 in17.0 mm
03:30 PM 52.2°F11.2°C 52.2°F11.2°C 100% Calm Calm 2.7 mph4.3 kmh 29.44 in997.0 mb - 0.00 in0.0 mm 0.67 in17.0 mm
03:20 PM 52.2°F11.2°C 52.2°F11.2°C 100% 2.4 mph SSE3.9 kmh SSE 3.1 mph5.0 kmh 29.44 in997.0 mb - 0.00 in0.0 mm 0.67 in17.0 mm
03:10 PM 52.5°F11.4°C 52.5°F11.4°C 100% Calm Calm 3.1 mph5.0 kmh 29.44 in997.0 mb - 0.00 in0.0 mm 0.67 in17.0 mm
03:00 PM 51.6°F10.9°C 51.6°F10.9°C 100% 1.6 mph SE2.6 kmh SE 3.1 mph5.0 kmh 29.44 in997.0 mb - 0.00 in0.0 mm 0.67 in17.0 mm
02:50 PM 51.1°F10.6°C 51.1°F10.6°C 100% 3.1 mph SSW5.0 kmh SSW 4.0 mph6.4 kmh 29.44 in997.0 mb - 0.00 in0.0 mm 0.67 in17.0 mm
02:40 PM 50.7°F10.4°C 50.7°F10.4°C 100% 4.2 mph SSE6.8 kmh SSE 6.3 mph10.1 kmh 29.44 in997.0 mb - 0.00 in0.0 mm 0.67 in17.0 mm
02:30 PM 50.5°F10.3°C 50.5°F10.3°C 100% 4.3 mph SSW6.9 kmh SSW 7.6 mph12.2 kmh 29.47 in998.0 mb - 0.00 in0.0 mm 0.67 in17.0 mm
02:20 PM 50.9°F10.5°C 50.9°F10.5°C 100% 4.7 mph S7.6 kmh S 7.6 mph12.2 kmh 29.47 in998.0 mb - 0.04 in1.0 mm 0.67 in17.0 mm
02:10 PM 52.3°F11.3°C 52.3°F11.3°C 100% 5.0 mph SW8.0 kmh SW 8.7 mph14.0 kmh 29.47 in998.0 mb - 0.00 in0.0 mm 0.63 in16.0 mm
02:00 PM 52.5°F11.4°C 52.5°F11.4°C 100% 7.1 mph SSE11.4 kmh SSE 9.2 mph14.8 kmh 29.47 in998.0 mb - 0.00 in0.0 mm 0.63 in16.0 mm
01:50 PM 52.7°F11.5°C 52.7°F11.5°C 100% 7.8 mph SSE12.6 kmh SSE 8.7 mph14.0 kmh 29.47 in998.0 mb - 0.00 in0.0 mm 0.63 in16.0 mm
01:40 PM 53.2°F11.8°C 53.2°F11.8°C 100% 6.7 mph S10.8 kmh S 10.9 mph17.5 kmh 29.47 in998.0 mb - 0.00 in0.0 mm 0.63 in16.0 mm
01:30 PM 53.4°F11.9°C 53.4°F11.9°C 100% 7.4 mph S11.9 kmh S 10.1 mph16.3 kmh 29.47 in998.0 mb - 0.00 in0.0 mm 0.63 in16.0 mm
01:20 PM 53.6°F12.0°C 53.6°F12.0°C 100% 8.9 mph SSW14.3 kmh SSW 15.4 mph24.8 kmh 29.47 in998.0 mb - 0.08 in2.0 mm 0.63 in16.0 mm
01:10 PM 54.0°F12.2°C 54.0°F12.2°C 100% 9.2 mph S14.8 kmh S 15.0 mph24.1 kmh 29.47 in998.0 mb - 0.00 in0.0 mm 0.55 in14.0 mm
01:00 PM 54.1°F12.3°C 54.1°F12.3°C 100% 6.6 mph SSE10.6 kmh SSE 15.4 mph24.8 kmh 29.50 in999.0 mb - 0.00 in0.0 mm 0.55 in14.0 mm
12:50 PM 54.5°F12.5°C 54.5°F12.5°C 100% 7.5 mph SE12.1 kmh SE 15.4 mph24.8 kmh 29.50 in999.0 mb - 0.00 in0.0 mm 0.55 in14.0 mm
12:40 PM 54.3°F12.4°C 54.3°F12.4°C 100% 8.4 mph SSE13.5 kmh SSE 12.3 mph19.8 kmh 29.50 in999.0 mb - 0.04 in1.0 mm 0.55 in14.0 mm
12:30 PM 54.1°F12.3°C 54.1°F12.3°C 100% 8.2 mph S13.2 kmh S 10.1 mph16.3 kmh 29.53 in1000.0 mb - 0.00 in0.0 mm 0.51 in13.0 mm
12:20 PM 54.4°F12.4°C 54.4°F12.4°C 100% 7.3 mph S11.7 kmh S 13.2 mph21.2 kmh 29.53 in1000.0 mb - 0.00 in0.0 mm 0.51 in13.0 mm
12:10 PM 54.6°F12.6°C 54.6°F12.6°C 100% 6.5 mph SE10.5 kmh SE 10.9 mph17.5 kmh 29.54 in1000.3 mb - 0.00 in0.0 mm 0.51 in13.0 mm
11:50 AM 53.9°F12.2°C 53.9°F12.2°C 100% 7.4 mph S11.9 kmh S 12.7 mph20.4 kmh 29.58 in1001.7 mb - 0.04 in1.0 mm 0.51 in13.0 mm
11:40 AM 54.0°F12.2°C 54.0°F12.2°C 100% 7.5 mph SE12.1 kmh SE 15.0 mph24.1 kmh 29.59 in1002.0 mb - 0.00 in0.0 mm 0.47 in11.9 mm
11:30 AM 54.2°F12.3°C 54.2°F12.3°C 100% 5.9 mph SE9.5 kmh SE 10.5 mph16.9 kmh 29.62 in1003.0 mb - 0.04 in1.0 mm 0.47 in11.9 mm
11:20 AM 54.1°F12.3°C 54.1°F12.3°C 100% 8.9 mph SSE14.3 kmh SSE 19.7 mph31.7 kmh 29.62 in1003.0 mb - 0.04 in1.0 mm 0.43 in10.9 mm
11:10 AM 54.1°F12.3°C 54.1°F12.3°C 100% 6.0 mph ESE9.7 kmh ESE 16.3 mph26.2 kmh 29.62 in1003.0 mb - 0.00 in0.0 mm 0.39 in9.9 mm
11:00 AM 54.0°F12.2°C 54.0°F12.2°C 100% 7.4 mph S11.9 kmh S 13.2 mph21.2 kmh 29.65 in1004.1 mb - 0.04 in1.0 mm 0.39 in9.9 mm
10:50 AM 53.4°F11.9°C 53.4°F11.9°C 100% 7.4 mph S11.9 kmh S 12.7 mph20.4 kmh 29.65 in1004.1 mb - 0.00 in0.0 mm 0.35 in8.9 mm
10:40 AM 52.3°F11.3°C 52.3°F11.3°C 100% 8.7 mph S14.0 kmh S 10.9 mph17.5 kmh 29.65 in1004.1 mb - 0.00 in0.0 mm 0.35 in8.9 mm
10:30 AM 44.7°F7.1°C 44.7°F7.1°C 100% 4.9 mph S7.9 kmh S 10.5 mph16.9 kmh 29.68 in1005.1 mb - 0.04 in1.0 mm 0.35 in8.9 mm
10:20 AM 42.4°F5.8°C 42.4°F5.8°C 100% 1.8 mph WSW2.9 kmh WSW 5.8 mph9.3 kmh 29.68 in1005.1 mb - 0.04 in1.0 mm 0.32 in8.1 mm
10:10 AM 38.8°F3.8°C 38.8°F3.8°C 100% 4.5 mph WNW7.2 kmh WNW 5.8 mph9.3 kmh 29.68 in1005.1 mb - 0.00 in0.0 mm 0.28 in7.1 mm
10:00 AM 38.5°F3.6°C 38.5°F3.6°C 100% 3.7 mph W6.0 kmh W 4.9 mph7.9 kmh 29.68 in1005.1 mb - 0.00 in0.0 mm 0.28 in7.1 mm
09:50 AM 38.1°F3.4°C 38.1°F3.4°C 100% Calm Calm 3.1 mph5.0 kmh 29.68 in1005.1 mb - 0.04 in1.0 mm 0.28 in7.1 mm
09:40 AM 37.6°F3.1°C 37.6°F3.1°C 100% 3.3 mph WNW5.3 kmh WNW 5.4 mph8.7 kmh 29.68 in1005.1 mb - 0.04 in1.0 mm 0.24 in6.1 mm
09:30 AM 37.4°F3.0°C 37.4°F3.0°C 100% 2.0 mph WNW3.2 kmh WNW 4.0 mph6.4 kmh 29.68 in1005.1 mb - 0.00 in0.0 mm 0.20 in5.1 mm
09:20 AM 36.7°F2.6°C 36.7°F2.6°C 100% Calm Calm 3.6 mph5.8 kmh 29.68 in1005.1 mb - 0.00 in0.0 mm 0.20 in5.1 mm
09:10 AM 36.7°F2.6°C 36.7°F2.6°C 100% 3.5 mph NW5.6 kmh NW 4.9 mph7.9 kmh 29.71 in1006.1 mb - 0.00 in0.0 mm 0.20 in5.1 mm
09:00 AM 36.3°F2.4°C 36.3°F2.4°C 100% Calm Calm 2.7 mph4.3 kmh 29.71 in1006.1 mb - 0.00 in0.0 mm 0.20 in5.1 mm
08:50 AM 36.1°F2.3°C 36.1°F2.3°C 100% Calm Calm -- 29.72 in1006.4 mb - 0.04 in1.0 mm 0.20 in5.1 mm
08:40 AM 35.8°F2.1°C 35.8°F2.1°C 100% 0.9 mph NW1.4 kmh NW 4.9 mph7.9 kmh 29.74 in1007.1 mb - 0.12 in3.0 mm 0.20 in5.1 mm
08:30 AM 35.2°F1.8°C 35.2°F1.8°C 100% 2.8 mph W4.5 kmh W 4.9 mph7.9 kmh 29.74 in1007.1 mb - 0.04 in1.0 mm 0.08 in2.0 mm
08:20 AM 34.9°F1.6°C 34.9°F1.6°C 100% 0.9 mph WNW1.4 kmh WNW 3.6 mph5.8 kmh 29.74 in1007.1 mb - 0.00 in0.0 mm 0.04 in1.0 mm
08:10 AM 34.7°F1.5°C 34.7°F1.5°C 100% 2.4 mph NW3.9 kmh NW 4.5 mph7.2 kmh 29.74 in1007.1 mb - 0.00 in0.0 mm 0.04 in1.0 mm
08:00 AM 34.5°F1.4°C 34.5°F1.4°C 100% Calm Calm 3.1 mph5.0 kmh 29.77 in1008.1 mb - 0.00 in0.0 mm 0.04 in1.0 mm
07:50 AM 34.3°F1.3°C 34.3°F1.3°C 100% Calm Calm 2.7 mph4.3 kmh 29.77 in1008.1 mb - 0.00 in0.0 mm 0.04 in1.0 mm
07:40 AM 34.2°F1.2°C 34.2°F1.2°C 100% 2.0 mph N3.2 kmh N 5.4 mph8.7 kmh 29.77 in1008.1 mb - 0.04 in1.0 mm 0.04 in1.0 mm
07:30 AM 34.0°F1.1°C 34.0°F1.1°C 100% 3.1 mph N5.0 kmh N 3.6 mph5.8 kmh 29.77 in1008.1 mb - 0.00 in0.0 mm 0.00 in0.0 mm
07:20 AM 34.0°F1.1°C 34.0°F1.1°C 100% 1.4 mph N2.3 kmh N 3.1 mph5.0 kmh 29.78 in1008.5 mb - 0.00 in0.0 mm 0.00 in0.0 mm
07:10 AM 34.0°F1.1°C 34.0°F1.1°C 100% Calm Calm -- 29.80 in1009.1 mb - 0.00 in0.0 mm 0.00 in0.0 mm
07:00 AM 34.0°F1.1°C 34.0°F1.1°C 100% Calm Calm -- 29.80 in1009.1 mb - 0.00 in0.0 mm 0.00 in0.0 mm
06:50 AM 34.0°F1.1°C 34.0°F1.1°C 100% 2.4 mph NNE3.9 kmh NNE 5.4 mph8.7 kmh 29.80 in1009.1 mb - 0.00 in0.0 mm 0.00 in0.0 mm
06:40 AM 34.0°F1.1°C 34.0°F1.1°C 100% Calm Calm -- 29.82 in1009.8 mb - 0.00 in0.0 mm 0.00 in0.0 mm
06:30 AM 34.0°F1.1°C 34.0°F1.1°C 100% 1.6 mph N2.6 kmh N 3.6 mph5.8 kmh 29.86 in1011.2 mb - 0.00 in0.0 mm 0.00 in0.0 mm
06:20 AM 34.2°F1.2°C 34.2°F1.2°C 100% 4.8 mph N7.7 kmh N 6.3 mph10.1 kmh 29.85 in1010.8 mb - 0.00 in0.0 mm 0.00 in0.0 mm
06:10 AM 34.0°F1.1°C 34.0°F1.1°C 100% 1.9 mph N3.1 kmh N 3.6 mph5.8 kmh 29.82 in1009.8 mb - 0.00 in0.0 mm 0.00 in0.0 mm
06:00 AM 34.0°F1.1°C 34.0°F1.1°C 100% 2.4 mph N3.9 kmh N 6.3 mph10.1 kmh 29.86 in1011.2 mb - 0.00 in0.0 mm 0.00 in0.0 mm
05:50 AM 34.2°F1.2°C 34.2°F1.2°C 100% 3.3 mph N5.3 kmh N 4.0 mph6.4 kmh 29.86 in1011.2 mb - 0.00 in0.0 mm 0.00 in0.0 mm
05:40 AM 34.0°F1.1°C 34.0°F1.1°C 100% 2.8 mph N4.5 kmh N 4.0 mph6.4 kmh 29.86 in1011.2 mb - 0.00 in0.0 mm 0.00 in0.0 mm
05:30 AM 34.1°F1.2°C 34.1°F1.2°C 100% 1.8 mph NNW2.9 kmh NNW 3.1 mph5.0 kmh 29.86 in1011.2 mb - 0.00 in0.0 mm 0.00 in0.0 mm
05:20 AM 34.1°F1.2°C 34.1°F1.2°C 100% 2.6 mph NNW4.2 kmh NNW 4.9 mph7.9 kmh 29.86 in1011.2 mb - 0.00 in0.0 mm 0.00 in0.0 mm
05:10 AM 34.2°F1.2°C 34.2°F1.2°C 100% 4.2 mph NNW6.8 kmh NNW 4.9 mph7.9 kmh 29.86 in1011.2 mb - 0.00 in0.0 mm 0.00 in0.0 mm
05:00 AM 34.3°F1.3°C 34.3°F1.3°C 100% 4.4 mph N7.1 kmh N 5.8 mph9.3 kmh 29.88 in1011.9 mb - 0.00 in0.0 mm 0.00 in0.0 mm
04:50 AM 34.3°F1.3°C 34.3°F1.3°C 100% 3.3 mph N5.3 kmh N 5.4 mph8.7 kmh 29.88 in1011.9 mb - 0.00 in0.0 mm 0.00 in0.0 mm
04:40 AM 34.3°F1.3°C 34.3°F1.3°C 100% 4.2 mph N6.8 kmh N 6.3 mph10.1 kmh 29.88 in1011.9 mb - 0.00 in0.0 mm 0.00 in0.0 mm
04:30 AM 34.3°F1.3°C 34.3°F1.3°C 100% 3.4 mph NNE5.5 kmh NNE 4.9 mph7.9 kmh 29.88 in1011.9 mb - 0.00 in0.0 mm 0.00 in0.0 mm
04:20 AM 34.3°F1.3°C 34.3°F1.3°C 100% 3.9 mph N6.3 kmh N 5.4 mph8.7 kmh 29.89 in1012.2 mb - 0.00 in0.0 mm 0.00 in0.0 mm
04:10 AM 34.4°F1.3°C 34.4°F1.3°C 100% 4.3 mph N6.9 kmh N 6.3 mph10.1 kmh 29.91 in1012.9 mb - 0.00 in0.0 mm 0.00 in0.0 mm
04:00 AM 34.5°F1.4°C 34.5°F1.4°C 100% 2.3 mph WNW3.7 kmh WNW 3.6 mph5.8 kmh 29.88 in1011.9 mb - 0.00 in0.0 mm 0.00 in0.0 mm
03:50 AM 34.5°F1.4°C 34.5°F1.4°C 100% 4.0 mph NNW6.4 kmh NNW 6.3 mph10.1 kmh 29.89 in1012.2 mb - 0.00 in0.0 mm 0.00 in0.0 mm
03:40 AM 34.7°F1.5°C 34.7°F1.5°C 100% 3.6 mph N5.8 kmh N 6.3 mph10.1 kmh 29.91 in1012.9 mb - 0.00 in0.0 mm 0.00 in0.0 mm
03:30 AM 34.9°F1.6°C 34.9°F1.6°C 100% 2.7 mph NW4.3 kmh NW 3.6 mph5.8 kmh 29.91 in1012.9 mb - 0.00 in0.0 mm 0.00 in0.0 mm
03:20 AM 34.9°F1.6°C 34.9°F1.6°C 100% 4.2 mph N6.8 kmh N 5.8 mph9.3 kmh 29.92 in1013.2 mb - 0.00 in0.0 mm 0.00 in0.0 mm
03:10 AM 35.1°F1.7°C 35.1°F1.7°C 100% 3.8 mph N6.1 kmh N 5.8 mph9.3 kmh 29.94 in1013.9 mb - 0.00 in0.0 mm 0.00 in0.0 mm
03:00 AM 35.1°F1.7°C 35.1°F1.7°C 100% Calm Calm 2.7 mph4.3 kmh 29.91 in1012.9 mb - 0.00 in0.0 mm 0.00 in0.0 mm
02:50 AM 35.2°F1.8°C 35.2°F1.8°C 100% 4.0 mph N6.4 kmh N 6.3 mph10.1 kmh 29.92 in1013.2 mb - 0.00 in0.0 mm 0.00 in0.0 mm
02:40 AM 35.6°F2.0°C 35.6°F2.0°C 100% 3.8 mph N6.1 kmh N 7.2 mph11.6 kmh 29.94 in1013.9 mb - 0.00 in0.0 mm 0.00 in0.0 mm
02:30 AM 35.6°F2.0°C 35.6°F2.0°C 100% 3.3 mph N5.3 kmh N 5.4 mph8.7 kmh 29.94 in1013.9 mb - 0.00 in0.0 mm 0.00 in0.0 mm
02:20 AM 35.8°F2.1°C 35.8°F2.1°C 100% 3.6 mph N5.8 kmh N 8.0 mph12.9 kmh 29.95 in1014.2 mb - 0.00 in0.0 mm 0.00 in0.0 mm
02:10 AM 36.1°F2.3°C 36.1°F2.3°C 100% 3.5 mph N5.6 kmh N 4.9 mph7.9 kmh 29.97 in1014.9 mb - 0.00 in0.0 mm 0.00 in0.0 mm
02:00 AM 36.2°F2.3°C 36.2°F2.3°C 100% 3.2 mph N5.1 kmh N 5.4 mph8.7 kmh 29.97 in1014.9 mb - 0.00 in0.0 mm 0.00 in0.0 mm
01:50 AM 36.3°F2.4°C 36.3°F2.4°C 100% 4.0 mph N6.4 kmh N 5.8 mph9.3 kmh 29.97 in1014.9 mb - 0.00 in0.0 mm 0.00 in0.0 mm
01:40 AM 36.3°F2.4°C 36.3°F2.4°C 100% 2.7 mph NNW4.3 kmh NNW 4.0 mph6.4 kmh 29.97 in1014.9 mb - 0.00 in0.0 mm 0.00 in0.0 mm
01:30 AM 36.5°F2.5°C 36.5°F2.5°C 100% 2.5 mph N4.0 kmh N 3.1 mph5.0 kmh 30.00 in1015.9 mb - 0.00 in0.0 mm 0.00 in0.0 mm
01:20 AM 36.5°F2.5°C 36.5°F2.5°C 100% 3.0 mph N4.8 kmh N 4.0 mph6.4 kmh 30.00 in1015.9 mb - 0.00 in0.0 mm 0.00 in0.0 mm
01:10 AM 36.7°F2.6°C 36.7°F2.6°C 100% 3.6 mph N5.8 kmh N 5.8 mph9.3 kmh 30.00 in1015.9 mb - 0.00 in0.0 mm 0.00 in0.0 mm
01:00 AM 36.9°F2.7°C 36.9°F2.7°C 100% 3.8 mph NW6.1 kmh NW 5.4 mph8.7 kmh 30.00 in1015.9 mb - 0.00 in0.0 mm 0.00 in0.0 mm
12:50 AM 37.0°F2.8°C 37.0°F2.8°C 100% 0.9 mph N1.4 kmh N 4.9 mph7.9 kmh 30.01 in1016.3 mb - 0.00 in0.0 mm 0.00 in0.0 mm
12:40 AM 37.0°F2.8°C 37.0°F2.8°C 100% 2.7 mph N4.3 kmh N 3.6 mph5.8 kmh 30.03 in1016.9 mb - 0.00 in0.0 mm 0.00 in0.0 mm
12:30 AM 37.1°F2.8°C 37.1°F2.8°C 100% 2.8 mph NW4.5 kmh NW 3.6 mph5.8 kmh 30.03 in1016.9 mb - 0.00 in0.0 mm 0.00 in0.0 mm
12:20 AM 37.2°F2.9°C 37.2°F2.9°C 100% 2.8 mph N4.5 kmh N 3.1 mph5.0 kmh 30.03 in1016.9 mb - 0.00 in0.0 mm 0.00 in0.0 mm
12:10 AM 37.4°F3.0°C 37.4°F3.0°C 100% 3.0 mph NNW4.8 kmh NNW 6.3 mph10.1 kmh 30.03 in1016.9 mb - 0.00 in0.0 mm 0.00 in0.0 mm
12:00 AM 37.4°F3.0°C 37.4°F3.0°C 100% 2.8 mph N4.5 kmh N 4.0 mph6.4 kmh 30.03 in1016.9 mb - 0.00 in0.0 mm 0.00 in0.0 mm